Weather reports worldwide

Advertisment
Modena, Italy (16128): temperature & dewpoint: 10.09.2019 17:00:00 - 16.09.2019 17:00:00 (CEST)Modena, Italy (16128): wind speed: 10.09.2019 17:00:00 - 16.09.2019 17:00:00 (CEST)Modena, Italy (16128): wind direction: 10.09.2019 17:00:00 - 16.09.2019 17:00:00 (CEST)Modena, Italy (16128): reduced air pressure: 10.09.2019 17:00:00 - 16.09.2019 17:00:00 (CEST)Modena, Italy (16128): precipitation: 10.09.2019 17:00:00 - 16.09.2019 17:00:00 (CEST)
Date & Time tt [°C] td [°C] ff [km/h] ff [kn] dd ppp [hPa] rr [mm]
16.09.2019 17:00:00 - - - - - - -
16.09.2019 16:00:00 29,5 12,9 5 3 N 1016,8 0,0
16.09.2019 15:00:00 28,7 13,0 7 4 NW 1017,7 0,0
16.09.2019 14:00:00 28,1 13,2 1 1 NNW 1018,4 0,0
16.09.2019 13:00:00 27,4 13,7 6 3 NNW 1019,2 0,0
16.09.2019 12:00:00 26,1 13,9 1 1 W 1019,8 0,0
16.09.2019 11:00:00 23,7 14,1 5 3 W 1020,4 0,0
16.09.2019 10:00:00 22,3 13,9 8 4 WNW 1020,5 0,0
16.09.2019 09:00:00 20,2 13,6 3 2 W 1020,6 0,0
16.09.2019 08:00:00 19,3 13,5 1 0 WSW 1020,4 0,0
16.09.2019 07:00:00 18,6 13,2 0 0 WNW 1020,2 0,0
16.09.2019 06:00:00 18,7 13,1 0 0 NW 1020,2 0,0
16.09.2019 05:00:00 19,6 12,8 5 3 SW 1020,4 0,0
16.09.2019 04:00:00 20,1 13,1 5 3 WSW 1020,7 0,0
16.09.2019 03:00:00 20,1 13,5 8 4 SW 1021,1 0,0
16.09.2019 02:00:00 20,1 14,0 4 2 SW 1021,5 0,0
16.09.2019 01:00:00 20,8 14,0 4 2 W 1021,6 0,0
16.09.2019 00:00:00 21,4 14,3 6 4 SW 1021,9 0,0
15.09.2019 23:00:00 23,2 13,4 0 0 W 1021,8 0,0
15.09.2019 22:00:00 24,8 12,7 0 0 N 1021,9 0,0
15.09.2019 21:00:00 25,7 12,9 0 0 ENE 1021,9 0,0
15.09.2019 20:00:00 26,6 12,3 0 0 NE 1021,6 0,0
15.09.2019 19:00:00 27,5 11,5 0 0 E 1021,6 0,0
15.09.2019 18:00:00 28,7 10,8 0 0 NNW 1021,9 0,0
15.09.2019 17:00:00 28,1 10,3 1 1 NE 1022,4 0,0
15.09.2019 16:00:00 28,3 10,5 1 1 NNW 1022,8 0,0
15.09.2019 15:00:00 28,1 10,8 6 3 NNW 1023,5 0,0
15.09.2019 14:00:00 28,0 11,1 1 1 S 1024,4 0,0
15.09.2019 13:00:00 25,9 12,4 2 1 NW 1025,2 0,0
15.09.2019 12:00:00 24,1 13,3 5 3 NW 1026,0 0,0
15.09.2019 11:00:00 23,7 13,0 2 1 W 1026,4 0,0
15.09.2019 10:00:00 22,5 13,0 0 0 NNW 1026,6 0,0
15.09.2019 09:00:00 19,3 12,8 3 1 SSW 1027,0 0,0
15.09.2019 08:00:00 18,9 13,3 0 0 SSE 1026,5 0,0
15.09.2019 07:00:00 18,0 13,1 0 0 N 1026,4 0,0
15.09.2019 06:00:00 18,2 12,2 3 2 WSW 1026,2 0,0
15.09.2019 05:00:00 18,6 12,6 6 4 SW 1026,1 0,0
15.09.2019 04:00:00 19,1 13,5 2 1 W 1026,2 0,0
15.09.2019 03:00:00 19,6 12,8 1 1 W 1026,8 0,0
15.09.2019 02:00:00 20,8 12,7 3 1 S 1026,4 0,0
15.09.2019 01:00:00 21,1 13,3 - - - 1026,6 0,0
15.09.2019 00:00:00 21,9 14,3 5 3 SSE 1026,8 0,0
14.09.2019 23:00:00 22,5 14,1 3 2 E 1027,2 0,0
14.09.2019 22:00:00 23,6 13,7 13 7 ESE 1027,3 0,0
14.09.2019 21:00:00 24,5 12,4 8 4 E 1026,9 0,0
14.09.2019 20:00:00 26,0 12,1 4 2 E 1026,4 0,0
14.09.2019 19:00:00 27,9 11,9 1 0 N 1025,8 0,0
14.09.2019 18:00:00 28,6 10,8 5 3 N 1025,9 0,0
14.09.2019 17:00:00 28,4 10,6 3 2 E 1026,1 0,0
14.09.2019 16:00:00 28,6 10,3 8 4 E 1026,9 0,0
14.09.2019 15:00:00 27,9 10,6 8 5 ESE 1027,4 0,0
14.09.2019 14:00:00 28,2 10,8 1 1 ENE 1028,1 0,0
14.09.2019 13:00:00 27,8 10,9 4 2 E 1028,6 0,0
14.09.2019 12:00:00 26,1 12,2 2 1 NE 1029,3 0,0
14.09.2019 11:00:00 23,5 13,1 2 1 NNW 1029,7 0,0
14.09.2019 10:00:00 20,7 12,7 4 2 NW 1029,7 0,0
14.09.2019 09:00:00 18,7 12,2 5 3 WNW 1029,5 0,0
14.09.2019 08:00:00 18,3 12,5 1 1 WSW 1029,1 0,0
14.09.2019 07:00:00 17,3 12,2 0 0 WNW 1028,6 0,0
14.09.2019 06:00:00 17,7 11,9 0 0 W 1028,2 0,0
14.09.2019 05:00:00 18,2 12,0 4 2 WSW 1028,2 0,0
14.09.2019 04:00:00 19,2 12,0 6 4 WSW 1028,3 0,0
14.09.2019 03:00:00 19,6 12,1 8 4 SW 1028,6 0,0
14.09.2019 02:00:00 20,5 12,2 0 0 SSW 1028,7 0,0
14.09.2019 01:00:00 20,7 12,4 4 2 WSW 1028,7 0,0
14.09.2019 00:00:00 21,1 12,8 3 1 WSW 1028,8 0,0
13.09.2019 23:00:00 22,9 11,6 1 1 SSE 1028,7 0,0
13.09.2019 22:00:00 24,7 10,9 2 1 ESE 1028,2 0,0
13.09.2019 21:00:00 26,1 11,4 0 0 ENE 1028,1 0,0
13.09.2019 20:00:00 26,9 11,0 0 0 E 1027,7 0,0
13.09.2019 19:00:00 27,8 10,5 1 0 E 1027,6 0,0
13.09.2019 18:00:00 28,4 10,1 2 1 NE 1027,7 0,0
13.09.2019 17:00:00 28,3 10,0 5 3 E 1027,9 0,0
13.09.2019 16:00:00 28,1 9,9 4 2 ENE 1028,4 0,0
13.09.2019 15:00:00 27,7 10,0 6 3 ENE 1029,0 0,0
13.09.2019 14:00:00 27,6 10,3 10 6 E 1029,4 0,0
13.09.2019 13:00:00 26,7 10,0 6 3 ENE 1030,0 0,0
13.09.2019 12:00:00 25,4 10,4 5 3 E 1030,7 0,0
13.09.2019 11:00:00 24,5 11,1 4 2 ESE 1031,2 0,0
13.09.2019 10:00:00 21,4 11,4 1 1 W 1031,5 0,0
13.09.2019 09:00:00 19,7 10,9 1 0 W 1031,0 0,0
13.09.2019 08:00:00 17,5 9,9 3 2 SW 1031,0 0,0
13.09.2019 07:00:00 17,4 10,8 1 1 W 1030,7 0,0
13.09.2019 06:00:00 17,2 10,6 3 2 SW 1030,2 0,0
13.09.2019 05:00:00 17,7 10,6 - - - 1030,1 0,0
13.09.2019 04:00:00 18,5 10,8 5 3 WNW 1029,8 0,0
13.09.2019 03:00:00 19,3 10,6 1 1 SSW 1029,4 0,0
13.09.2019 02:00:00 19,7 10,9 2 1 SW 1029,5 0,0
13.09.2019 01:00:00 20,1 11,6 3 1 SSW 1029,5 0,0
13.09.2019 00:00:00 20,9 11,8 8 4 S 1029,2 0,0
12.09.2019 23:00:00 21,8 12,1 1 0 SSW 1029,4 0,0
12.09.2019 22:00:00 24,2 10,1 0 0 SE 1029,1 0,0
12.09.2019 21:00:00 25,1 10,2 0 0 E 1028,9 0,0
12.09.2019 20:00:00 26,0 9,4 0 0 W 1028,4 0,0
12.09.2019 19:00:00 27,1 9,0 0 0 SE 1028,1 0,0
12.09.2019 18:00:00 27,3 7,2 2 1 ESE 1028,0 0,0
12.09.2019 17:00:00 27,4 9,2 1 0 E 1028,1 0,0
12.09.2019 16:00:00 27,7 10,0 5 3 ENE 1028,5 0,0
12.09.2019 15:00:00 27,8 10,1 1 1 ENE 1028,8 0,0
12.09.2019 14:00:00 26,7 10,0 3 2 NNE 1029,2 0,0
12.09.2019 13:00:00 25,6 11,7 6 3 NW 1029,4 0,0
12.09.2019 12:00:00 24,5 11,1 1 1 NNW 1029,3 0,0
12.09.2019 11:00:00 23,1 11,8 4 2 NNW 1029,3 0,0
12.09.2019 10:00:00 21,8 11,8 3 1 WNW 1028,9 0,0
12.09.2019 09:00:00 18,5 11,6 4 2 SW 1028,2 0,0
12.09.2019 08:00:00 17,0 11,3 2 1 SW 1027,8 0,0
12.09.2019 07:00:00 16,9 11,4 6 3 WSW 1026,8 0,0
12.09.2019 06:00:00 16,6 11,3 4 2 W 1026,3 0,0
12.09.2019 05:00:00 17,2 11,5 0 0 WNW 1025,8 0,0
12.09.2019 04:00:00 17,6 11,6 4 2 WSW 1025,4 0,0
12.09.2019 03:00:00 18,0 11,8 5 3 WSW 1025,1 0,0
12.09.2019 02:00:00 18,5 11,6 3 2 WSW 1024,9 0,0
12.09.2019 01:00:00 18,7 11,8 1 0 WSW 1024,7 0,0
12.09.2019 00:00:00 19,5 11,5 - - - 1024,2 -
11.09.2019 23:00:00 21,0 10,8 0 0 WSW 1024,0 0,0
11.09.2019 22:00:00 22,3 11,7 0 0 S 1023,3 0,0
11.09.2019 21:00:00 23,4 11,4 - - - 1022,7 -
11.09.2019 20:00:00 24,3 10,6 0 0 ENE 1022,0 0,0
11.09.2019 19:00:00 25,1 9,0 1 0 E 1021,4 0,0
11.09.2019 18:00:00 26,2 8,7 0 0 ENE 1021,2 0,0
11.09.2019 17:00:00 25,7 8,7 0 0 NNW 1021,1 0,0
11.09.2019 16:00:00 26,0 8,0 0 0 W 1021,0 0,0
11.09.2019 15:00:00 26,4 8,8 3 2 NNW 1021,4 0,0
11.09.2019 14:00:00 24,9 10,7 5 3 SW 1021,8 0,0
11.09.2019 13:00:00 24,1 11,4 5 3 WNW 1021,8 0,0
11.09.2019 12:00:00 22,7 12,9 3 2 WSW 1022,1 0,0
11.09.2019 11:00:00 20,9 13,1 8 4 NW 1022,6 0,0
11.09.2019 10:00:00 19,6 12,4 8 4 NW 1022,3 0,0
11.09.2019 09:00:00 18,7 12,0 5 3 WNW 1021,6 0,0
11.09.2019 08:00:00 17,4 13,3 4 2 WNW 1021,3 0,0
11.09.2019 07:00:00 16,8 13,9 8 4 W 1021,1 0,0
11.09.2019 06:00:00 17,1 13,8 11 6 WNW 1020,8 0,0
11.09.2019 05:00:00 17,0 14,6 11 6 W 1020,5 0,0
11.09.2019 04:00:00 17,5 14,6 6 4 W 1020,5 0,0
11.09.2019 03:00:00 17,3 14,9 10 5 W 1020,4 0,0
11.09.2019 02:00:00 17,5 15,1 11 6 WNW 1020,3 0,0
11.09.2019 01:00:00 18,1 14,4 10 5 WNW 1020,0 0,0
11.09.2019 00:00:00 18,4 14,1 5 3 W 1019,7 0,0
10.09.2019 23:00:00 19,0 14,0 0 0 ENE 1019,2 0,0
10.09.2019 22:00:00 19,4 14,4 6 3 ENE 1018,9 0,0
10.09.2019 21:00:00 20,0 14,6 9 5 ENE 1018,5 0,0
10.09.2019 20:00:00 21,3 11,6 9 5 NE 1017,7 0,0
10.09.2019 19:00:00 22,6 11,0 15 8 ENE 1016,7 0,0
10.09.2019 18:00:00 24,0 11,7 13 7 ENE 1016,0 0,0
10.09.2019 17:00:00 24,8 6,5 9 5 E 1015,9 0,0

tt = temperature
td = dewpoint
ff = wind speed
dd = wind direction
ppp = reduced air pressure
rr = precipitation

Next stations